Mae Sariang, Thailand
Current Conditions -  °F | °C
As of 3:30 AM on Friday 21 Nov 2014 (Local Time) from VTCC Reporting Station
Few Clouds Few Clouds  
Wind Chill: 21°   Ceiling: Unl
Heat Index: 21°   Visibility: 6mi
Dew Point: 18°   Wind: 2mph
Humidity: 83%   Direction: 90°E
Pressure: 29.97"   Gusts: NA
Location:  18.15°N, 97.93°E
Report Text: VTCC 202030Z 09002KT 9999 FEW040 21/18 Q1015 A2998 NOSIG
Loading
Personal Weather Stations






























Interactive Weather Map New forecast layout! Learn more

10-Day Weather Forecast

Advertisements
Track Severe Weather on mobile